Time;durP1;ratioP1;P1;durP2;ratioP2;P2;SDS_P1;SDS_P2;PMS_P1;PMS_P2;Temp;Humidity;BMP_temperature;BMP_pressure;BME280_temperature;BME280_humidity;BME280_pressure;Samples;Min_cycle;Max_cycle;Signal;HPM_P1;HPM_P2
2021/05/08 00:01:00;;;;;;;5.50;3.45;;;4.50;86.00;;;;;;5043383;28;20136;-70
2021/05/08 00:03:26;;;;;;;8.77;4.00;;;4.50;86.00;;;;;;5037411;28;20048;-70
2021/05/08 00:05:52;;;;;;;5.05;3.30;;;4.50;85.90;;;;;;5042437;28;20576;-70
2021/05/08 00:08:18;;;;;;;7.15;3.50;;;4.50;86.00;;;;;;5045506;28;20045;-70
2021/05/08 00:10:44;;;;;;;8.18;3.83;;;4.40;86.00;;;;;;5034777;28;20053;-70
2021/05/08 00:13:11;;;;;;;7.32;3.85;;;4.40;86.10;;;;;;5041393;28;20057;-70
2021/05/08 00:15:38;;;;;;;5.70;3.63;;;4.40;86.10;;;;;;5041912;28;20053;-70
2021/05/08 00:18:04;;;;;;;8.50;3.65;;;4.40;86.30;;;;;;5046108;28;20601;-70
2021/05/08 00:20:31;;;;;;;5.75;4.00;;;4.30;86.60;;;;;;5047915;28;20049;-70
2021/05/08 00:22:58;;;;;;;5.90;3.80;;;4.30;86.50;;;;;;5043352;28;20133;-70
2021/05/08 00:25:25;;;;;;;7.05;4.20;;;4.30;86.60;;;;;;5045279;28;20059;-70
2021/05/08 00:27:51;;;;;;;9.23;4.10;;;4.20;86.20;;;;;;5047103;28;20555;-70
2021/05/08 00:30:18;;;;;;;6.38;4.10;;;4.20;86.10;;;;;;5049056;28;20049;-70
2021/05/08 00:32:44;;;;;;;7.35;4.13;;;4.20;86.00;;;;;;5046463;28;20045;-70
2021/05/08 00:35:10;;;;;;;6.28;3.85;;;4.20;86.10;;;;;;5041204;28;20091;-70
2021/05/08 00:37:37;;;;;;;6.93;4.10;;;4.20;86.00;;;;;;5040753;28;20132;-70
2021/05/08 00:40:04;;;;;;;5.57;4.22;;;4.20;86.10;;;;;;5047075;28;20084;-70
2021/05/08 00:42:30;;;;;;;7.53;4.53;;;4.20;86.10;;;;;;5061694;28;20053;-70
2021/05/08 00:44:57;;;;;;;5.80;3.75;;;4.20;86.10;;;;;;5039565;28;20054;-70
2021/05/08 00:47:26;;;;;;;6.38;3.55;;;4.20;86.30;;;;;;5041893;28;20117;-70
2021/05/08 00:49:52;;;;;;;5.38;3.88;;;4.10;86.40;;;;;;5040815;28;20049;-70
2021/05/08 00:52:19;;;;;;;6.15;3.45;;;4.00;86.60;;;;;;5044709;28;20135;-70
2021/05/08 00:54:46;;;;;;;5.13;3.47;;;4.00;86.70;;;;;;5037814;28;20059;-70
2021/05/08 00:57:12;;;;;;;6.22;3.97;;;3.90;86.80;;;;;;5041059;28;20473;-70
2021/05/08 00:59:38;;;;;;;5.63;4.03;;;3.90;86.80;;;;;;5036394;28;20155;-70
2021/05/08 01:02:06;;;;;;;6.25;4.05;;;3.90;86.30;;;;;;5043425;28;20455;-70
2021/05/08 01:04:33;;;;;;;5.82;3.83;;;3.80;86.10;;;;;;5041472;28;20054;-70
2021/05/08 01:07:00;;;;;;;9.15;4.53;;;3.80;86.40;;;;;;5039799;28;20191;-70
2021/05/08 01:09:27;;;;;;;7.15;4.75;;;3.80;86.50;;;;;;5044155;28;20045;-69
2021/05/08 01:11:54;;;;;;;6.53;4.30;;;3.80;86.40;;;;;;5047140;28;20044;-70
2021/05/08 01:14:21;;;;;;;7.57;4.73;;;3.80;86.80;;;;;;5044035;28;20419;-70
2021/05/08 01:16:48;;;;;;;7.07;4.53;;;3.80;86.80;;;;;;5043220;28;20312;-70
2021/05/08 01:19:16;;;;;;;7.85;4.32;;;3.80;86.90;;;;;;5048528;28;20040;-70
2021/05/08 01:21:42;;;;;;;6.40;4.15;;;3.80;87.00;;;;;;5044145;28;20037;-70
2021/05/08 01:24:09;;;;;;;6.53;4.72;;;3.90;86.90;;;;;;5041900;28;20407;-70
2021/05/08 01:26:35;;;;;;;5.80;4.25;;;3.80;86.60;;;;;;5040399;28;20051;-70
2021/05/08 01:29:03;;;;;;;7.60;4.55;;;3.80;86.90;;;;;;5052311;28;20382;-70
2021/05/08 01:31:29;;;;;;;6.43;4.20;;;3.80;87.00;;;;;;5043431;28;20048;-70
2021/05/08 01:33:56;;;;;;;6.50;4.32;;;3.80;86.80;;;;;;5042060;28;20052;-70
2021/05/08 01:36:22;;;;;;;7.55;4.55;;;3.80;86.90;;;;;;5037900;28;20130;-70
2021/05/08 01:38:49;;;;;;;6.40;4.55;;;3.80;86.70;;;;;;5043187;28;20405;-70
2021/05/08 01:41:15;;;;;;;8.32;5.05;;;3.80;86.80;;;;;;5042319;28;20627;-70
2021/05/08 01:43:42;;;;;;;8.07;4.90;;;3.80;87.60;;;;;;5043336;28;20057;-70
2021/05/08 01:46:08;;;;;;;6.60;4.25;;;3.90;87.20;;;;;;5044949;28;20055;-70
2021/05/08 01:48:37;;;;;;;7.95;4.88;;;3.90;87.70;;;;;;5047662;28;20048;-70
2021/05/08 01:51:04;;;;;;;6.43;4.22;;;3.90;87.60;;;;;;5043116;28;20102;-70
2021/05/08 01:53:30;;;;;;;6.82;4.72;;;3.90;87.90;;;;;;5041137;28;20044;-70
2021/05/08 01:55:56;;;;;;;6.63;4.90;;;3.90;87.90;;;;;;5035207;28;20557;-70
2021/05/08 01:58:23;;;;;;;7.40;4.90;;;4.00;88.40;;;;;;5048221;28;20057;-70
2021/05/08 02:00:49;;;;;;;7.43;4.35;;;4.00;88.40;;;;;;5038713;28;20127;-70
2021/05/08 02:03:17;;;;;;;7.93;5.15;;;4.00;88.30;;;;;;5045658;28;20132;-70
2021/05/08 02:05:46;;;;;;;9.32;5.75;;;4.10;88.40;;;;;;5044254;28;20053;-70
2021/05/08 02:08:13;;;;;;;8.52;5.60;;;4.10;88.50;;;;;;5041390;28;20045;-69
2021/05/08 02:10:43;;;;;;;8.18;5.25;;;4.10;88.50;;;;;;5041709;28;20758;-70
2021/05/08 02:13:11;;;;;;;9.90;6.15;;;4.20;89.00;;;;;;5043733;28;20075;-70
2021/05/08 02:15:38;;;;;;;8.50;5.55;;;4.30;89.00;;;;;;5038990;28;20461;-70
2021/05/08 02:18:05;;;;;;;9.05;6.05;;;4.30;89.40;;;;;;5044962;28;20041;-70
2021/05/08 02:20:36;;;;;;;8.07;5.80;;;4.40;89.70;;;;;;5042190;28;20053;-70
2021/05/08 02:23:05;;;;;;;8.98;5.93;;;4.50;89.60;;;;;;5039255;28;20057;-70
2021/05/08 02:25:31;;;;;;;7.93;5.95;;;4.50;89.80;;;;;;5044651;28;20533;-70
2021/05/08 02:27:59;;;;;;;8.85;6.25;;;4.50;89.80;;;;;;5037974;28;20048;-70
2021/05/08 02:30:33;;;;;;;9.70;6.90;;;4.50;90.10;;;;;;5042068;28;20045;-70
2021/05/08 02:33:00;;;;;;;8.27;6.25;;;4.60;90.40;;;;;;5043566;28;20044;-70
2021/05/08 02:35:27;;;;;;;9.13;6.43;;;4.60;90.30;;;;;;5049854;28;20048;-70
2021/05/08 02:37:55;;;;;;;10.65;6.35;;;4.60;90.40;;;;;;5040648;28;20037;-70
2021/05/08 02:40:27;;;;;;;8.98;6.40;;;4.70;90.50;;;;;;5040242;28;20151;-70
2021/05/08 02:42:54;;;;;;;9.68;6.93;;;4.80;90.60;;;;;;5034375;28;20067;-70
2021/05/08 02:45:21;;;;;;;10.45;6.72;;;4.80;90.60;;;;;;5041734;28;20128;-70
2021/05/08 02:47:49;;;;;;;11.77;7.20;;;4.80;90.70;;;;;;5036945;28;20053;-70
2021/05/08 02:50:18;;;;;;;10.60;6.10;;;4.80;90.90;;;;;;5043990;28;20076;-70
2021/05/08 02:52:45;;;;;;;11.88;7.63;;;4.80;90.90;;;;;;5040788;28;20128;-70
2021/05/08 02:55:12;;;;;;;10.68;6.93;;;4.80;90.80;;;;;;5039499;28;20128;-70
2021/05/08 02:57:39;;;;;;;9.88;6.50;;;4.80;90.70;;;;;;5042399;28;20139;-70
2021/05/08 03:00:08;;;;;;;11.27;7.15;;;4.80;90.90;;;;;;5039572;28;20329;-70
2021/05/08 03:02:35;;;;;;;9.40;6.18;;;4.80;91.10;;;;;;5042183;28;20699;-70
2021/05/08 03:05:02;;;;;;;12.77;6.43;;;4.70;91.00;;;;;;5043652;28;20073;-70
2021/05/08 03:07:29;;;;;;;11.90;7.60;;;4.70;91.30;;;;;;5034881;28;20057;-70
2021/05/08 03:09:55;;;;;;;11.45;6.97;;;4.70;91.20;;;;;;5041926;28;20057;-70
2021/05/08 03:12:22;;;;;;;12.13;7.13;;;4.60;91.00;;;;;;5035164;28;20400;-70
2021/05/08 03:14:49;;;;;;;11.80;7.32;;;4.60;91.30;;;;;;5037422;28;20457;-70
2021/05/08 03:17:17;;;;;;;7.72;5.75;;;4.50;91.20;;;;;;5042901;28;20131;-70
2021/05/08 03:19:44;;;;;;;11.20;6.38;;;4.50;91.50;;;;;;5044969;28;20056;-70
2021/05/08 03:22:10;;;;;;;9.65;6.45;;;4.50;91.40;;;;;;5045889;28;20443;-70
2021/05/08 03:24:36;;;;;;;9.82;6.57;;;4.50;91.70;;;;;;5040856;28;20086;-70
2021/05/08 03:27:03;;;;;;;9.48;6.90;;;4.50;91.50;;;;;;5033243;28;20121;-70
2021/05/08 03:29:30;;;;;;;10.25;6.28;;;4.40;91.40;;;;;;5036804;28;20157;-70
2021/05/08 03:31:56;;;;;;;11.48;6.55;;;4.40;91.30;;;;;;5037409;28;20132;-70
2021/05/08 03:34:23;;;;;;;10.75;6.28;;;4.40;91.60;;;;;;5037638;28;20041;-70
2021/05/08 03:36:49;;;;;;;8.60;6.18;;;4.40;91.20;;;;;;5050534;28;20127;-70
2021/05/08 03:39:15;;;;;;;9.27;6.43;;;4.40;91.30;;;;;;5051261;28;20095;-70
2021/05/08 03:41:42;;;;;;;9.13;6.50;;;4.40;91.60;;;;;;5041661;28;20049;-70
2021/05/08 03:44:08;;;;;;;10.38;6.47;;;4.40;91.50;;;;;;5050316;28;20049;-70
2021/05/08 03:46:35;;;;;;;9.15;6.43;;;4.40;91.80;;;;;;5036333;28;20557;-70
2021/05/08 03:49:01;;;;;;;10.20;6.50;;;4.40;91.70;;;;;;5039738;28;20094;-70
2021/05/08 03:51:28;;;;;;;10.05;6.35;;;4.40;91.70;;;;;;5040543;28;20053;-70
2021/05/08 03:53:56;;;;;;;9.32;6.22;;;4.40;91.90;;;;;;5039270;28;20425;-70
2021/05/08 03:56:22;;;;;;;11.00;6.05;;;4.40;92.00;;;;;;5044676;28;20048;-70
2021/05/08 03:58:49;;;;;;;10.30;6.88;;;4.40;92.10;;;;;;5047697;28;20049;-70
2021/05/08 04:01:15;;;;;;;9.05;5.43;;;4.50;92.30;;;;;;5047466;28;20051;-70
2021/05/08 04:03:43;;;;;;;9.52;6.32;;;4.50;92.90;;;;;;5040844;28;20060;-70
2021/05/08 04:06:09;;;;;;;11.75;7.43;;;4.50;92.50;;;;;;5042821;28;20043;-70
2021/05/08 04:08:35;;;;;;;10.52;5.93;;;4.60;92.40;;;;;;5041048;28;20144;-70
2021/05/08 04:11:01;;;;;;;10.43;6.95;;;4.60;93.40;;;;;;5039187;28;20064;-70
2021/05/08 04:13:27;;;;;;;10.32;6.60;;;4.60;93.10;;;;;;5042215;28;20088;-70
2021/05/08 04:15:54;;;;;;;10.63;6.75;;;4.60;92.90;;;;;;5043863;28;20106;-70
2021/05/08 04:18:20;;;;;;;9.73;6.20;;;4.70;93.00;;;;;;5040390;28;20354;-70
2021/05/08 04:20:47;;;;;;;10.60;7.13;;;4.70;93.00;;;;;;5044308;28;20049;-70
2021/05/08 04:23:14;;;;;;;9.02;6.13;;;4.70;92.90;;;;;;5048575;28;20124;-70
2021/05/08 04:25:40;;;;;;;8.65;6.53;;;4.80;93.30;;;;;;5037790;28;20075;-70
2021/05/08 04:28:11;;;;;;;8.82;6.07;;;4.90;93.30;;;;;;5040460;28;20054;-70
2021/05/08 04:30:38;;;;;;;8.95;6.05;;;4.90;93.40;;;;;;5034878;28;20128;-70
2021/05/08 04:33:20;;;;;;;9.70;6.32;;;5.00;93.70;;;;;;5040930;28;20135;-70
2021/05/08 04:35:46;;;;;;;8.25;6.05;;;5.00;93.90;;;;;;5041415;28;20049;-70
2021/05/08 04:38:12;;;;;;;9.30;6.32;;;5.10;93.90;;;;;;5044438;28;20079;-70
2021/05/08 04:40:40;;;;;;;8.80;5.57;;;5.10;93.90;;;;;;5037025;28;20303;-70
2021/05/08 04:43:07;;;;;;;10.98;6.07;;;5.20;94.00;;;;;;5043624;28;20372;-70
2021/05/08 04:45:33;;;;;;;8.38;5.65;;;5.30;94.20;;;;;;5038600;28;20108;-70
2021/05/08 04:47:59;;;;;;;9.18;5.85;;;5.30;94.40;;;;;;5040105;28;20040;-70
2021/05/08 04:50:27;;;;;;;9.65;6.07;;;5.40;94.40;;;;;;5040403;28;20043;-70
2021/05/08 04:52:54;;;;;;;9.05;6.18;;;5.40;93.90;;;;;;5036353;28;20055;-70
2021/05/08 04:55:20;;;;;;;8.45;5.97;;;5.40;93.80;;;;;;5038986;28;20455;-70
2021/05/08 04:58:05;;;;;;;9.03;5.57;;;5.50;94.00;;;;;;5041420;28;20111;-70
2021/05/08 05:00:32;;;;;;;9.23;5.60;;;5.50;94.30;;;;;;5045697;28;20317;-70
2021/05/08 05:02:58;;;;;;;7.85;5.35;;;5.60;94.10;;;;;;5048452;28;20055;-70
2021/05/08 05:05:24;;;;;;;7.80;5.35;;;5.60;94.10;;;;;;5045162;28;20072;-70
2021/05/08 05:07:51;;;;;;;7.55;4.97;;;5.70;94.30;;;;;;5040459;28;20076;-70
2021/05/08 05:10:17;;;;;;;8.27;5.45;;;5.70;94.20;;;;;;5040417;28;20095;-70
2021/05/08 05:12:44;;;;;;;7.85;4.78;;;5.70;94.10;;;;;;5041317;28;20052;-70
2021/05/08 05:15:11;;;;;;;7.70;5.00;;;5.80;94.40;;;;;;5043858;28;20070;-70
2021/05/08 05:17:37;;;;;;;8.93;5.28;;;5.90;94.70;;;;;;5048543;28;20076;-70
2021/05/08 05:20:04;;;;;;;7.10;5.03;;;6.00;94.50;;;;;;5039566;28;20518;-70
2021/05/08 05:22:31;;;;;;;9.15;5.28;;;6.00;95.00;;;;;;5031399;28;20056;-70
2021/05/08 05:24:57;;;;;;;7.90;4.63;;;6.10;94.90;;;;;;5037142;28;20129;-70
2021/05/08 05:27:23;;;;;;;7.63;4.75;;;6.30;95.60;;;;;;5036419;28;20111;-70
2021/05/08 05:29:50;;;;;;;6.97;4.60;;;6.40;96.20;;;;;;5039521;28;20469;-70
2021/05/08 05:32:16;;;;;;;7.68;4.35;;;6.50;96.50;;;;;;5036883;28;20107;-70
2021/05/08 05:34:43;;;;;;;7.30;4.65;;;6.60;96.00;;;;;;5036822;28;20041;-70
2021/05/08 05:37:09;;;;;;;7.53;4.00;;;6.70;96.00;;;;;;5040140;28;20040;-70
2021/05/08 05:39:35;;;;;;;8.93;5.43;;;6.80;95.90;;;;;;5049276;28;20046;-71
2021/05/08 05:42:02;;;;;;;8.85;4.65;;;6.80;95.80;;;;;;5039168;28;20111;-70
2021/05/08 05:44:28;;;;;;;6.60;4.45;;;7.00;95.80;;;;;;5038915;28;20045;-70
2021/05/08 05:46:54;;;;;;;7.32;4.38;;;7.00;95.90;;;;;;5057608;28;20434;-70
2021/05/08 05:49:21;;;;;;;7.50;4.93;;;7.10;95.90;;;;;;5047132;28;20052;-70
2021/05/08 05:51:47;;;;;;;6.93;4.38;;;7.20;95.90;;;;;;5049964;28;20506;-70
2021/05/08 05:54:13;;;;;;;5.95;4.00;;;7.30;96.00;;;;;;5039816;28;20518;-70
2021/05/08 05:56:39;;;;;;;6.18;3.83;;;7.40;96.10;;;;;;5037254;28;20385;-70
2021/05/08 05:59:06;;;;;;;6.10;4.03;;;7.50;96.10;;;;;;5033965;28;20049;-70
2021/05/08 06:01:32;;;;;;;8.32;4.60;;;7.60;96.10;;;;;;5043917;28;20141;-70
2021/05/08 06:03:58;;;;;;;6.93;4.30;;;7.70;96.20;;;;;;5043657;28;20057;-70
2021/05/08 06:06:24;;;;;;;7.72;4.30;;;7.80;96.30;;;;;;5046667;28;20068;-70
2021/05/08 06:08:51;;;;;;;8.30;4.78;;;7.80;96.30;;;;;;5041713;28;20072;-70
2021/05/08 06:11:17;;;;;;;9.15;5.50;;;7.90;96.30;;;;;;5043647;28;20124;-70
2021/05/08 06:13:43;;;;;;;6.80;4.72;;;7.90;96.10;;;;;;5046336;28;20724;-70
2021/05/08 06:16:10;;;;;;;6.35;4.18;;;8.00;96.30;;;;;;5039354;28;20413;-70
2021/05/08 06:18:36;;;;;;;7.13;4.75;;;8.00;96.30;;;;;;5042770;28;20079;-70
2021/05/08 06:21:06;;;;;;;8.23;5.03;;;8.00;96.30;;;;;;5040232;28;20134;-70
2021/05/08 06:23:33;;;;;;;8.48;5.32;;;8.10;96.30;;;;;;5055671;28;20084;-70
2021/05/08 06:25:59;;;;;;;7.57;4.80;;;8.10;96.60;;;;;;5041111;28;20098;-70
2021/05/08 06:28:25;;;;;;;8.23;5.15;;;8.10;96.40;;;;;;5041479;28;20045;-70
2021/05/08 06:30:54;;;;;;;9.75;5.20;;;8.20;96.30;;;;;;5039083;28;20045;-70
2021/05/08 06:33:23;;;;;;;7.03;4.25;;;8.20;96.30;;;;;;5039935;28;20037;-70
2021/05/08 06:35:49;;;;;;;;;;;8.30;96.30;;;;;;5039220;28;20044;-70
2021/05/08 06:38:16;;;;;;;8.57;4.82;;;8.30;97.10;;;;;;5039820;28;19935;-70
2021/05/08 06:40:42;;;;;;;8.07;5.20;;;8.30;96.50;;;;;;5040113;28;20052;-70
2021/05/08 06:43:08;;;;;;;9.00;4.80;;;8.40;96.50;;;;;;5039725;28;20127;-70
2021/05/08 06:45:35;;;;;;;6.55;4.40;;;8.40;96.40;;;;;;5038211;28;25140;-70
2021/05/08 06:48:02;;;;;;;8.82;5.05;;;8.40;96.60;;;;;;5040736;28;20207;-70
2021/05/08 06:50:29;;;;;;;7.18;4.97;;;8.50;96.40;;;;;;5024851;28;20055;-70
2021/05/08 06:52:55;;;;;;;8.85;5.10;;;8.50;96.50;;;;;;5038815;28;20172;-70
2021/05/08 06:55:21;;;;;;;9.32;4.90;;;8.60;96.50;;;;;;5038568;28;20124;-70
2021/05/08 06:57:51;;;;;;;6.85;4.85;;;8.60;97.00;;;;;;5030613;28;20055;-70
2021/05/08 07:00:18;;;;;;;6.45;4.32;;;8.60;96.70;;;;;;5031243;28;20407;-70
2021/05/08 07:02:44;;;;;;;8.48;5.25;;;8.70;96.70;;;;;;5034135;28;20049;-70
2021/05/08 07:05:12;;;;;;;8.02;5.28;;;8.70;96.70;;;;;;5036742;28;20056;-70
2021/05/08 07:07:38;;;;;;;7.35;4.60;;;8.80;96.90;;;;;;5038215;28;20048;-70
2021/05/08 07:10:05;;;;;;;8.38;4.93;;;8.80;96.80;;;;;;5040027;28;20060;-70
2021/05/08 07:12:32;;;;;;;8.45;5.32;;;8.90;96.90;;;;;;5043221;28;20240;-70
2021/05/08 07:14:58;;;;;;;7.47;4.78;;;8.90;96.90;;;;;;5028028;28;20128;-70
2021/05/08 07:17:24;;;;;;;6.97;4.65;;;9.00;97.00;;;;;;5041929;28;20037;-70
2021/05/08 07:19:52;;;;;;;8.23;4.97;;;9.10;97.00;;;;;;5033521;28;20068;-70
2021/05/08 07:22:18;;;;;;;7.40;4.88;;;9.20;97.00;;;;;;5038759;28;20049;-70
2021/05/08 07:24:45;;;;;;;8.15;5.20;;;9.30;97.00;;;;;;5042089;28;20045;-70
2021/05/08 07:27:11;;;;;;;10.48;5.88;;;9.30;97.10;;;;;;5037270;28;20115;-70
2021/05/08 07:29:38;;;;;;;9.00;5.72;;;9.40;97.10;;;;;;5039404;28;20124;-70
2021/05/08 07:32:04;;;;;;;8.23;4.97;;;9.40;97.10;;;;;;5042256;28;20153;-70
2021/05/08 07:34:31;;;;;;;7.95;5.07;;;9.50;97.30;;;;;;5041464;28;20056;-70
2021/05/08 07:41:04;;;;;;;8.13;4.80;;;9.60;97.30;;;;;;5040663;28;20635;-70
2021/05/08 07:43:30;;;;;;;10.13;5.78;;;9.70;97.20;;;;;;5041872;28;20055;-70
2021/05/08 07:45:56;;;;;;;9.07;5.85;;;9.80;97.30;;;;;;5041553;28;20481;-70
2021/05/08 07:48:23;;;;;;;12.55;5.90;;;9.80;97.30;;;;;;5042654;28;21013;-70
2021/05/08 07:50:49;;;;;;;8.63;5.20;;;9.80;97.20;;;;;;5042491;28;20068;-70
2021/05/08 07:53:15;;;;;;;7.28;4.88;;;9.90;97.30;;;;;;5040767;28;20114;-70
2021/05/08 07:55:42;;;;;;;8.98;5.22;;;9.90;97.40;;;;;;5040838;28;20045;-70
2021/05/08 07:58:08;;;;;;;8.48;4.97;;;10.00;96.70;;;;;;5042302;28;20099;-70
2021/05/08 08:00:35;;;;;;;10.98;6.05;;;10.00;96.70;;;;;;5039869;28;20561;-70
2021/05/08 08:03:02;;;;;;;9.85;6.10;;;10.00;96.60;;;;;;5044673;28;20488;-70
2021/05/08 08:05:42;;;;;;;9.65;6.22;;;10.10;96.50;;;;;;5041598;28;20052;-70
2021/05/08 08:08:08;;;;;;;10.10;6.00;;;10.10;96.20;;;;;;5045903;28;20048;-70
2021/05/08 08:10:35;;;;;;;8.07;4.40;;;10.10;96.30;;;;;;5039805;28;20124;-70
2021/05/08 08:13:01;;;;;;;9.20;5.15;;;10.10;96.50;;;;;;5042678;28;20070;-70
2021/05/08 08:15:28;;;;;;;8.27;5.22;;;10.20;96.40;;;;;;5039578;28;20045;-70
2021/05/08 08:17:54;;;;;;;9.32;5.47;;;10.20;96.40;;;;;;5041326;28;20128;-70
2021/05/08 08:20:21;;;;;;;8.30;4.80;;;10.30;96.60;;;;;;5038558;28;20393;-70
2021/05/08 08:22:47;;;;;;;8.30;4.63;;;10.30;96.80;;;;;;5041396;28;20060;-70
2021/05/08 08:25:14;;;;;;;8.18;4.82;;;10.40;96.40;;;;;;5038551;28;20056;-70
2021/05/08 08:27:41;;;;;;;9.52;7.15;;;10.40;96.50;;;;;;5036801;28;20052;-70
2021/05/08 08:30:10;;;;;;;8.85;5.32;;;10.50;96.20;;;;;;5038238;28;20053;-70
2021/05/08 08:32:38;;;;;;;12.15;6.30;;;10.50;96.40;;;;;;5040881;28;20049;-70
2021/05/08 08:35:05;;;;;;;9.07;5.47;;;10.50;96.50;;;;;;5038566;28;20045;-70
2021/05/08 08:37:31;;;;;;;9.75;5.93;;;10.60;96.30;;;;;;5043575;28;20075;-70
2021/05/08 08:39:58;;;;;;;11.18;5.90;;;10.70;96.40;;;;;;5039134;28;20555;-70
2021/05/08 08:42:24;;;;;;;9.32;4.30;;;10.70;96.50;;;;;;5040722;28;20435;-70
2021/05/08 08:44:51;;;;;;;10.00;5.50;;;10.80;96.30;;;;;;5037584;28;20131;-70
2021/05/08 08:47:29;;;;;;;9.50;5.35;;;10.80;96.70;;;;;;5037019;28;20143;-70
2021/05/08 08:50:07;;;;;;;7.60;4.95;;;11.00;96.90;;;;;;5034806;28;20056;-70
2021/05/08 08:52:34;;;;;;;7.13;4.45;;;11.10;97.00;;;;;;5042784;28;20048;-70
2021/05/08 08:55:00;;;;;;;7.40;4.85;;;11.20;97.10;;;;;;5038999;28;20048;-70
2021/05/08 08:57:37;;;;;;;9.38;5.22;;;11.30;96.60;;;;;;5039301;28;20045;-70
2021/05/08 09:00:15;;;;;;;7.10;4.37;;;11.40;97.00;;;;;;5039383;28;20049;-70
2021/05/08 09:02:49;;;;;;;;;;;11.50;96.80;;;;;;5040816;28;20341;-71
2021/05/08 09:05:18;;;;;;;7.22;4.00;;;11.50;95.90;;;;;;5038469;28;20361;-71
2021/05/08 09:07:46;;;;;;;6.28;3.70;;;11.60;96.90;;;;;;5042846;28;20055;-70
2021/05/08 09:10:31;;;;;;;7.50;4.07;;;11.70;97.00;;;;;;5038711;28;20473;-70
2021/05/08 09:13:02;;;;;;;8.50;4.57;;;11.80;96.90;;;;;;5038294;28;20057;-70
2021/05/08 09:15:36;;;;;;;8.00;3.58;;;11.90;97.30;;;;;;5035220;28;20050;-70
2021/05/08 09:18:04;;;;;;;8.93;4.30;;;12.00;97.60;;;;;;5039860;28;20068;-70
2021/05/08 09:20:59;;;;;;;10.80;4.75;;;12.10;97.40;;;;;;5039422;28;20071;-71
2021/05/08 09:23:31;;;;;;;5.45;3.17;;;12.30;96.80;;;;;;5029563;28;20092;-71
2021/05/08 09:26:04;;;;;;;7.18;4.32;;;12.50;97.10;;;;;;5037904;28;20052;-70
2021/05/08 09:28:32;;;;;;;6.50;3.00;;;12.70;97.20;;;;;;5041103;28;20052;-70
2021/05/08 09:30:59;;;;;;;5.75;3.13;;;12.80;97.00;;;;;;5037089;28;20399;-71
2021/05/08 09:33:28;;;;;;;7.78;4.00;;;12.90;96.70;;;;;;5036895;28;20049;-70
2021/05/08 09:36:02;;;;;;;6.72;3.70;;;12.90;96.50;;;;;;5025852;28;20408;-70
2021/05/08 09:38:33;;;;;;;8.00;4.25;;;13.00;96.70;;;;;;5037086;28;20095;-71
2021/05/08 09:40:59;;;;;;;6.53;3.20;;;13.00;95.80;;;;;;5038151;28;20051;-71
2021/05/08 09:43:26;;;;;;;7.47;3.35;;;13.00;95.70;;;;;;5037484;28;20057;-70
2021/05/08 09:45:53;;;;;;;6.97;3.58;;;13.00;96.00;;;;;;5035689;28;20103;-70
2021/05/08 09:48:32;;;;;;;6.10;2.95;;;12.90;95.00;;;;;;5037605;28;20145;-70
2021/05/08 09:51:22;;;;;;;5.65;3.05;;;12.80;95.50;;;;;;5036379;28;20072;-71
2021/05/08 09:53:55;;;;;;;7.60;3.78;;;12.80;94.10;;;;;;5042656;28;20128;-71
2021/05/08 09:56:42;;;;;;;7.22;3.22;;;12.70;94.90;;;;;;5037391;28;20093;-71
2021/05/08 09:59:24;;;;;;;4.57;2.78;;;12.70;95.40;;;;;;5039690;28;20467;-71
2021/05/08 10:02:11;;;;;;;9.30;3.97;;;12.70;95.50;;;;;;5038668;28;20053;-70
2021/05/08 10:04:50;;;;;;;5.10;3.08;;;12.70;94.40;;;;;;5037894;28;20467;-70
2021/05/08 10:07:21;;;;;;;5.28;2.63;;;12.70;95.60;;;;;;5041287;28;20132;-70
2021/05/08 10:09:51;;;;;;;6.63;3.55;;;12.70;95.20;;;;;;5033362;28;20460;-71
2021/05/08 10:12:21;;;;;;;6.15;3.00;;;12.80;96.00;;;;;;5041319;28;20128;-71
2021/05/08 10:14:50;;;;;;;6.80;2.90;;;12.90;95.80;;;;;;5033858;28;20404;-70
2021/05/08 10:17:21;;;;;;;6.55;2.97;;;12.90;95.60;;;;;;5038649;28;20036;-70
2021/05/08 10:19:50;;;;;;;6.47;2.85;;;12.90;95.20;;;;;;5051334;28;20056;-70
2021/05/08 10:22:18;;;;;;;6.25;2.90;;;12.90;95.80;;;;;;5037553;28;20041;-71
2021/05/08 10:24:46;;;;;;;4.23;2.33;;;12.90;95.80;;;;;;5036422;28;20484;-70
2021/05/08 10:27:13;;;;;;;6.90;2.83;;;13.00;95.90;;;;;;5039311;28;20398;-70
2021/05/08 10:29:42;;;;;;;5.57;2.88;;;13.00;94.80;;;;;;5038980;28;20053;-70
2021/05/08 10:32:17;;;;;;;5.22;2.80;;;12.90;95.30;;;;;;5038977;28;20043;-70
2021/05/08 10:35:02;;;;;;;5.32;2.80;;;12.90;94.70;;;;;;5038428;28;20045;-70
2021/05/08 10:37:29;;;;;;;4.70;2.95;;;12.80;94.90;;;;;;5039663;28;20076;-70
2021/05/08 10:39:59;;;;;;;5.72;2.80;;;12.70;95.40;;;;;;5036265;28;20630;-70
2021/05/08 10:42:46;;;;;;;6.78;2.83;;;12.60;95.50;;;;;;5037799;28;20059;-70
2021/05/08 10:45:15;;;;;;;5.13;2.60;;;12.60;95.90;;;;;;5035584;28;20086;-70
2021/05/08 10:47:58;;;;;;;4.35;2.45;;;12.50;95.90;;;;;;5041095;28;20052;-70
2021/05/08 10:50:30;;;;;;;5.00;2.60;;;12.40;96.20;;;;;;5040889;28;20051;-70
2021/05/08 10:53:13;;;;;;;5.55;2.13;;;12.40;96.50;;;;;;5038358;28;20411;-70
2021/05/08 10:55:53;;;;;;;4.43;2.33;;;12.40;96.80;;;;;;5039168;28;20060;-71
2021/05/08 10:58:20;;;;;;;5.03;2.25;;;12.40;96.80;;;;;;5036521;28;20184;-71
2021/05/08 11:00:51;;;;;;;3.30;2.13;;;12.40;97.00;;;;;;5036150;28;20140;-70
2021/05/08 11:03:25;;;;;;;6.07;2.58;;;12.30;96.80;;;;;;5036415;28;20077;-70
2021/05/08 11:06:25;;;;;;;5.80;2.22;;;12.30;97.60;;;;;;5036887;28;20044;-70
2021/05/08 11:08:51;;;;;;;4.28;1.95;;;12.10;98.00;;;;;;4997499;28;20045;-70
2021/05/08 11:11:22;;;;;;;4.82;2.17;;;12.10;98.30;;;;;;5039968;28;20072;-70
2021/05/08 11:13:50;;;;;;;4.35;2.28;;;12.00;97.90;;;;;;5035441;28;20056;-70
2021/05/08 11:16:18;;;;;;;4.95;2.15;;;12.00;97.50;;;;;;5038536;28;20072;-70
2021/05/08 11:19:09;;;;;;;3.78;1.88;;;11.90;98.70;;;;;;5037763;28;20061;-71
2021/05/08 11:21:37;;;;;;;3.53;1.92;;;11.80;99.70;;;;;;5031680;28;20102;-70
2021/05/08 11:24:05;;;;;;;3.85;2.45;;;11.80;97.80;;;;;;5037857;28;20044;-70
2021/05/08 11:26:43;;;;;;;4.43;2.08;;;11.80;97.60;;;;;;5030020;28;20048;-70
2021/05/08 11:29:21;;;;;;;4.03;1.95;;;11.80;98.00;;;;;;5035112;28;20056;-70
2021/05/08 11:31:56;;;;;;;3.20;1.95;;;11.70;99.90;;;;;;5033287;28;20149;-70
2021/05/08 11:34:28;;;;;;;3.65;1.80;;;11.70;98.90;;;;;;5048987;28;20053;-70
2021/05/08 11:37:01;;;;;;;4.57;2.10;;;11.60;99.70;;;;;;5033091;28;20169;-71
2021/05/08 11:39:38;;;;;;;5.25;2.22;;;11.60;98.80;;;;;;5030338;28;20059;-70
2021/05/08 11:42:17;;;;;;;6.40;2.30;;;11.60;99.90;;;;;;5029427;28;20059;-70
2021/05/08 11:45:00;;;;;;;4.07;2.30;;;11.50;99.40;;;;;;5027710;28;20076;-70
2021/05/08 11:47:30;;;;;;;4.43;1.90;;;11.50;99.40;;;;;;5031113;28;20511;-70
2021/05/08 11:50:01;;;;;;;3.65;1.88;;;11.50;99.90;;;;;;5027448;28;20080;-70
2021/05/08 11:52:31;;;;;;;;;;;11.40;99.90;;;;;;5029126;28;20255;-70
2021/05/08 11:54:57;;;;;;;2.70;1.95;;;11.40;99.90;;;;;;5028098;28;19935;-70
2021/05/08 11:57:23;;;;;;;4.22;2.35;;;11.30;99.90;;;;;;5030200;28;20526;-71
2021/05/08 11:59:51;;;;;;;3.05;1.75;;;11.30;99.90;;;;;;5030923;28;20428;-70
2021/05/08 12:02:25;;;;;;;3.58;1.92;;;11.30;99.90;;;;;;5047689;28;20525;-70
2021/05/08 12:04:54;;;;;;;4.93;2.25;;;11.30;99.90;;;;;;5029370;28;20187;-70
2021/05/08 12:07:29;;;;;;;4.05;2.20;;;11.30;99.90;;;;;;5033093;28;20082;-70
2021/05/08 12:10:20;;;;;;;3.05;2.05;;;11.30;99.90;;;;;;5035520;28;20085;-70
2021/05/08 12:12:55;;;;;;;5.95;2.28;;;11.30;99.90;;;;;;5033892;28;20140;-70
2021/05/08 12:15:22;;;;;;;5.55;2.67;;;11.30;99.90;;;;;;5035252;28;20049;-70
2021/05/08 12:17:50;;;;;;;4.30;2.25;;;11.40;99.90;;;;;;5035815;28;20077;-70
2021/05/08 12:20:20;;;;;;;4.55;2.13;;;11.40;99.90;;;;;;5038551;28;20045;-70
2021/05/08 12:23:11;;;;;;;5.03;2.53;;;11.50;99.90;;;;;;5037628;28;20060;-70
2021/05/08 12:25:37;;;;;;;4.95;2.47;;;11.40;99.90;;;;;;5037099;28;20090;-70
2021/05/08 12:28:25;;;;;;;3.85;2.38;;;11.40;99.90;;;;;;5035500;28;20136;-70
2021/05/08 12:30:51;;;;;;;3.30;2.10;;;11.30;99.90;;;;;;5038200;28;20041;-70
2021/05/08 12:33:19;;;;;;;3.85;2.20;;;11.30;99.90;;;;;;5038488;28;20049;-70
2021/05/08 12:35:47;;;;;;;3.85;2.80;;;11.30;99.90;;;;;;5039914;28;20077;-70
2021/05/08 12:38:25;;;;;;;3.13;2.10;;;11.30;99.90;;;;;;5038066;28;20067;-70
2021/05/08 12:40:52;;;;;;;5.55;2.17;;;11.30;99.90;;;;;;5034188;28;20072;-70
2021/05/08 12:43:31;;;;;;;5.82;2.53;;;11.30;99.90;;;;;;5039655;28;20053;-70
2021/05/08 12:46:05;;;;;;;4.30;2.60;;;11.30;99.90;;;;;;5037592;28;20132;-70
2021/05/08 12:48:34;;;;;;;4.35;2.47;;;11.30;99.90;;;;;;5035166;28;20049;-70
2021/05/08 12:51:00;;;;;;;4.25;2.53;;;11.30;99.90;;;;;;5039931;28;20059;-70
2021/05/08 12:53:26;;;;;;;5.78;2.22;;;11.30;99.90;;;;;;5040057;28;20128;-70
2021/05/08 12:56:05;;;;;;;5.15;2.75;;;11.30;99.90;;;;;;5039594;28;20045;-70
2021/05/08 12:58:39;;;;;;;5.20;2.88;;;11.40;99.90;;;;;;5042009;28;20146;-70
2021/05/08 13:01:06;;;;;;;3.83;2.28;;;11.40;99.90;;;;;;5041778;28;20060;-70
2021/05/08 13:06:04;;;;;;;6.20;3.10;;;11.40;99.90;;;;;;5038070;28;20099;-70
2021/05/08 13:08:51;;;;;;;4.95;2.97;;;11.40;99.90;;;;;;5033268;28;20049;-70